createdAt,value
2022-08-22T00:00:20.372Z,2.03
2022-08-22T00:03:45.824Z,2.50
2022-08-22T00:07:06.592Z,2.10
2022-08-22T00:10:26.328Z,2.17
2022-08-22T00:13:47.748Z,2.80
2022-08-22T00:17:05.347Z,2.50
2022-08-22T00:20:28.082Z,2.20
2022-08-22T00:23:47.960Z,2.27
2022-08-22T00:27:01.862Z,2.30
2022-08-22T00:30:10.452Z,2.37
2022-08-22T00:33:32.447Z,2.57
2022-08-22T00:36:43.324Z,2.30
2022-08-22T00:39:52.883Z,2.10
2022-08-22T00:43:32.548Z,2.53
2022-08-22T00:46:59.776Z,2.40
2022-08-22T00:50:12.701Z,2.43
2022-08-22T00:53:50.725Z,2.40
2022-08-22T00:57:20.422Z,2.20
2022-08-22T01:00:29.284Z,2.33
2022-08-22T01:03:45.347Z,2.97
2022-08-22T01:07:13.341Z,2.97
2022-08-22T01:10:58.003Z,2.87
2022-08-22T01:14:35.384Z,3.40
2022-08-22T01:18:01.397Z,3.03
2022-08-22T01:21:24.320Z,3.40
2022-08-22T01:25:01.602Z,3.33
2022-08-22T01:28:42.131Z,3.63
2022-08-22T01:32:02.978Z,3.37
2022-08-22T01:35:32.451Z,3.53
2022-08-22T01:38:40.089Z,3.63
2022-08-22T01:42:23.683Z,3.40
2022-08-22T01:45:31.372Z,3.10
2022-08-22T01:48:47.972Z,3.00
2022-08-22T01:52:12.178Z,2.77
2022-08-22T01:55:29.932Z,3.00
2022-08-22T01:58:36.047Z,3.57
2022-08-22T02:02:20.789Z,4.30
2022-08-22T02:05:28.589Z,4.20
2022-08-22T02:09:01.431Z,3.70
2022-08-22T02:12:22.520Z,3.27
2022-08-22T02:15:41.494Z,3.30
2022-08-22T02:19:13.746Z,3.57
2022-08-22T02:22:34.123Z,3.53
2022-08-22T02:25:57.420Z,2.93
2022-08-22T02:29:11.557Z,2.90
2022-08-22T02:32:26.872Z,3.00
2022-08-22T02:35:39.801Z,2.77
2022-08-22T02:38:56.015Z,3.00
2022-08-22T02:42:19.192Z,2.70
2022-08-22T02:45:39.693Z,2.90
2022-08-22T02:48:47.809Z,2.70
2022-08-22T02:52:17.948Z,2.50
2022-08-22T02:55:41.597Z,3.37
2022-08-22T02:59:11.392Z,3.30
2022-08-22T03:02:33.763Z,3.50
2022-08-22T03:05:38.547Z,3.30
2022-08-22T03:09:00.749Z,2.93
2022-08-22T03:12:26.556Z,2.70
2022-08-22T03:15:38.334Z,3.37
2022-08-22T03:19:06.240Z,3.30
2022-08-22T03:22:13.753Z,2.90
2022-08-22T03:25:38.899Z,3.07
2022-08-22T03:28:59.861Z,3.00
2022-08-22T03:32:23.858Z,3.50
2022-08-22T03:35:52.773Z,3.30
2022-08-22T03:39:12.302Z,3.00
2022-08-22T03:42:56.524Z,2.80
2022-08-22T03:46:19.815Z,3.17
2022-08-22T03:49:59.472Z,3.13
2022-08-22T03:53:20.080Z,3.30
2022-08-22T03:57:00.273Z,3.20
2022-08-22T04:00:26.992Z,3.00
2022-08-22T04:03:59.512Z,3.20
2022-08-22T04:07:35.229Z,3.90
2022-08-22T04:10:51.615Z,4.00
2022-08-22T04:14:30.824Z,5.10
2022-08-22T04:18:03.848Z,3.83
2022-08-22T04:21:52.965Z,3.37
2022-08-22T04:25:17.241Z,3.83
2022-08-22T04:28:29.083Z,3.50
2022-08-22T04:31:41.461Z,3.83
2022-08-22T04:34:50.603Z,3.47
2022-08-22T04:38:09.166Z,4.17
2022-08-22T04:41:32.688Z,3.63
2022-08-22T04:45:10.088Z,3.60
2022-08-22T04:48:29.449Z,3.50
2022-08-22T04:51:42.285Z,3.90
2022-08-22T04:54:55.960Z,3.87
2022-08-22T04:58:08.477Z,3.93
2022-08-22T05:01:16.688Z,5.63
2022-08-22T05:04:26.315Z,5.43
2022-08-22T05:07:36.182Z,5.10
2022-08-22T05:10:43.833Z,4.87
2022-08-22T05:14:00.071Z,3.90
2022-08-22T05:17:04.326Z,3.70
2022-08-22T05:20:11.040Z,3.57
2022-08-22T05:23:29.639Z,3.50
2022-08-22T05:26:42.721Z,4.20
2022-08-22T05:29:49.296Z,4.60
2022-08-22T05:33:03.338Z,4.80
2022-08-22T05:36:11.194Z,4.90
2022-08-22T05:39:18.234Z,6.73
2022-08-22T05:42:30.840Z,6.27
2022-08-22T05:45:35.224Z,4.90
2022-08-22T05:48:45.060Z,4.07
2022-08-22T05:52:23.246Z,3.63
2022-08-22T05:55:35.636Z,3.90
2022-08-22T05:58:44.553Z,5.20
2022-08-22T06:01:59.490Z,4.83
2022-08-22T06:05:11.715Z,3.90
2022-08-22T06:08:37.572Z,3.23
2022-08-22T06:11:51.949Z,3.77
2022-08-22T06:15:12.165Z,3.90
2022-08-22T06:18:18.851Z,3.70
2022-08-22T06:21:35.450Z,3.53
2022-08-22T06:24:41.688Z,3.63
2022-08-22T06:27:47.389Z,3.90
2022-08-22T06:30:55.239Z,3.80
2022-08-22T06:34:13.589Z,3.80
2022-08-22T06:37:22.305Z,5.83
2022-08-22T06:40:25.542Z,7.30
2022-08-22T06:43:38.482Z,6.07
2022-08-22T06:46:40.761Z,4.57
2022-08-22T06:49:45.097Z,3.77
2022-08-22T06:52:59.731Z,2.97
2022-08-22T06:56:05.573Z,3.20
2022-08-22T06:59:21.979Z,2.80
2022-08-22T07:02:35.077Z,3.43
2022-08-22T07:05:40.284Z,2.73
2022-08-22T07:08:42.384Z,3.00
2022-08-22T07:11:44.474Z,3.40
2022-08-22T07:14:58.208Z,3.00
2022-08-22T07:18:02.791Z,3.80
2022-08-22T07:21:07.821Z,3.40
2022-08-22T07:24:17.029Z,3.50
2022-08-22T07:27:26.385Z,3.43
2022-08-22T07:30:54.629Z,3.13
2022-08-22T07:34:10.005Z,4.80
2022-08-22T07:37:33.713Z,4.10
2022-08-22T07:41:06.376Z,3.50
2022-08-22T07:44:19.712Z,3.67
2022-08-22T07:47:26.476Z,3.47
2022-08-22T07:50:32.072Z,3.43
2022-08-22T07:53:44.787Z,6.50
2022-08-22T07:56:57.541Z,4.93
2022-08-22T08:00:01.289Z,4.00
2022-08-22T08:03:07.379Z,3.27
2022-08-22T08:06:09.946Z,3.97
2022-08-22T08:09:35.558Z,3.70
2022-08-22T08:12:52.770Z,3.70
2022-08-22T08:16:07.269Z,7.00
2022-08-22T08:19:11.577Z,6.00
2022-08-22T08:22:18.033Z,3.50
2022-08-22T08:25:25.431Z,3.90
2022-08-22T08:28:34.133Z,4.03
2022-08-22T08:31:44.724Z,3.47
2022-08-22T08:34:50.895Z,2.53
2022-08-22T08:38:03.565Z,3.47
2022-08-22T08:41:14.083Z,3.17
2022-08-22T08:45:01.130Z,2.50
2022-08-22T08:48:08.915Z,3.75
2022-08-22T08:51:35.021Z,2.47
2022-08-22T08:54:45.611Z,3.00
2022-08-22T08:57:54.871Z,2.50
2022-08-22T09:01:35.516Z,2.72
2022-08-22T09:04:56.008Z,2.97
2022-08-22T09:08:12.816Z,2.67
2022-08-22T09:11:48.083Z,2.72
2022-08-22T09:15:02.802Z,2.33
2022-08-22T09:18:28.760Z,3.00
2022-08-22T09:22:00.868Z,2.58
2022-08-22T09:25:23.369Z,2.53
2022-08-22T09:28:55.557Z,3.00
2022-08-22T09:32:34.404Z,2.90
2022-08-22T09:35:45.073Z,3.40
2022-08-22T09:38:58.411Z,4.20
2022-08-22T09:42:15.162Z,3.63
2022-08-22T09:45:38.106Z,2.73
2022-08-22T09:49:01.097Z,2.90
2022-08-22T09:52:34.195Z,3.70
2022-08-22T09:56:15.301Z,4.93
2022-08-22T09:59:28.731Z,3.80
2022-08-22T10:03:02.781Z,2.57
2022-08-22T10:06:20.370Z,2.73
2022-08-22T10:09:36.945Z,2.90
2022-08-22T10:12:54.520Z,2.97
2022-08-22T10:16:26.047Z,2.70
2022-08-22T10:19:30.532Z,2.63
2022-08-22T10:22:57.591Z,2.60
2022-08-22T10:26:23.059Z,2.73
2022-08-22T10:29:50.468Z,2.60
2022-08-22T10:33:21.316Z,2.80
2022-08-22T10:36:45.787Z,2.77
2022-08-22T10:40:13.282Z,2.43
2022-08-22T10:43:28.962Z,2.57
2022-08-22T10:46:54.211Z,2.37
2022-08-22T10:50:15.718Z,3.10
2022-08-22T10:53:30.137Z,3.20
2022-08-22T10:56:40.629Z,2.90
2022-08-22T11:00:09.579Z,2.63
2022-08-22T11:03:49.471Z,2.53
2022-08-22T11:07:02.156Z,2.70
2022-08-22T11:10:15.250Z,4.37
2022-08-22T11:14:07.817Z,3.07
2022-08-22T11:17:30.817Z,2.33
2022-08-22T11:20:54.947Z,2.27
2022-08-22T11:24:55.809Z,2.30
2022-08-22T11:28:06.335Z,2.50
2022-08-22T11:31:17.774Z,2.73
2022-08-22T11:34:58.120Z,3.93
2022-08-22T11:38:05.070Z,3.43
2022-08-22T11:41:25.222Z,2.50
2022-08-22T11:44:50.794Z,2.60
2022-08-22T11:48:21.446Z,1.97
2022-08-22T11:52:06.013Z,2.87
2022-08-22T11:55:32.778Z,2.20
2022-08-22T11:58:54.240Z,2.43
2022-08-22T12:02:03.954Z,2.20
2022-08-22T12:05:19.686Z,2.13
2022-08-22T12:08:33.892Z,2.23
2022-08-22T12:12:00.505Z,2.23
2022-08-22T12:15:33.492Z,2.63
2022-08-22T12:18:47.223Z,2.47
2022-08-22T12:22:08.118Z,2.60
2022-08-22T12:25:25.053Z,1.90
2022-08-22T12:28:39.837Z,2.20
2022-08-22T12:32:17.133Z,2.17
2022-08-22T12:35:37.267Z,2.10
2022-08-22T12:38:57.478Z,1.90
2022-08-22T12:42:14.198Z,2.57
2022-08-22T12:45:27.690Z,3.37
2022-08-22T12:48:52.013Z,1.73
2022-08-22T12:52:11.753Z,2.07
2022-08-22T12:55:31.747Z,1.83
2022-08-22T12:58:52.024Z,2.93
2022-08-22T13:01:57.289Z,1.60
2022-08-22T13:05:08.289Z,1.97
2022-08-22T13:08:17.532Z,1.90
2022-08-22T13:11:23.683Z,1.83
2022-08-22T13:14:27.420Z,2.77
2022-08-22T13:17:29.945Z,1.90
2022-08-22T13:20:36.780Z,1.80
2022-08-22T13:23:44.520Z,2.37
2022-08-22T13:26:50.522Z,2.03
2022-08-22T13:29:57.840Z,2.47
2022-08-22T13:33:14.290Z,1.93
2022-08-22T13:36:20.381Z,2.23
2022-08-22T13:39:40.941Z,2.23
2022-08-22T13:42:49.337Z,2.10
2022-08-22T13:46:02.489Z,2.10
2022-08-22T13:49:07.990Z,2.47
2022-08-22T13:52:29.376Z,2.10
2022-08-22T13:55:49.145Z,1.93
2022-08-22T13:58:56.989Z,1.80
2022-08-22T14:02:06.636Z,2.17
2022-08-22T14:05:31.105Z,1.97
2022-08-22T14:08:36.660Z,1.50
2022-08-22T14:11:44.359Z,2.43
2022-08-22T14:14:49.160Z,2.40
2022-08-22T14:18:09.230Z,2.33
2022-08-22T14:21:40.959Z,3.17
2022-08-22T14:24:46.152Z,2.30
2022-08-22T14:27:56.015Z,2.43
2022-08-22T14:31:07.237Z,2.40
2022-08-22T14:34:13.513Z,1.90
2022-08-22T14:37:28.365Z,2.50
2022-08-22T14:40:36.309Z,2.07
2022-08-22T14:44:33.405Z,2.30
2022-08-22T14:47:55.333Z,2.27
2022-08-22T14:51:22.653Z,1.93
2022-08-22T14:54:29.128Z,2.30
2022-08-22T14:57:33.182Z,2.43
2022-08-22T15:00:34.897Z,2.57
2022-08-22T15:03:39.063Z,2.30
2022-08-22T15:06:54.460Z,3.30
2022-08-22T15:10:25.590Z,2.37
2022-08-22T15:13:29.518Z,2.20
2022-08-22T15:16:42.179Z,2.00
2022-08-22T15:19:48.049Z,2.00
2022-08-22T15:22:56.530Z,1.80
2022-08-22T15:26:36.552Z,3.63
2022-08-22T15:29:52.475Z,2.50
2022-08-22T15:33:09.396Z,1.90
2022-08-22T15:36:24.073Z,1.90
2022-08-22T15:39:31.076Z,2.13
2022-08-22T15:42:46.148Z,1.87
2022-08-22T15:45:50.416Z,1.73
2022-08-22T15:49:06.960Z,1.97
2022-08-22T15:52:24.196Z,1.97
2022-08-22T15:59:53.916Z,1.67
2022-08-22T16:03:24.654Z,2.10
2022-08-22T16:06:50.582Z,1.87
2022-08-22T16:09:56.784Z,2.20
2022-08-22T16:13:10.602Z,1.80
2022-08-22T16:16:53.665Z,1.80
2022-08-22T16:20:19.363Z,2.20
2022-08-22T16:23:22.530Z,2.00
2022-08-22T16:26:30.255Z,2.50
2022-08-22T16:29:40.757Z,2.20
2022-08-22T16:32:55.244Z,2.30
2022-08-22T16:36:36.970Z,2.13
2022-08-22T16:39:52.332Z,2.10
2022-08-22T16:43:15.280Z,1.80
2022-08-22T16:46:36.463Z,2.00
2022-08-22T16:49:57.023Z,2.23
2022-08-22T16:53:03.990Z,2.40
2022-08-22T16:56:20.176Z,2.07
2022-08-22T16:59:38.614Z,3.40
2022-08-22T17:03:27.210Z,2.70
2022-08-22T17:07:07.491Z,2.30
2022-08-22T17:10:33.223Z,2.37
2022-08-22T17:13:51.543Z,2.10
2022-08-22T17:17:20.703Z,2.17
2022-08-22T17:20:42.066Z,2.53
2022-08-22T17:23:59.092Z,2.50
2022-08-22T17:27:12.121Z,2.53
2022-08-22T17:30:28.412Z,3.00
2022-08-22T17:34:05.666Z,2.33
2022-08-22T17:37:10.185Z,3.10
2022-08-22T17:40:25.007Z,3.40
2022-08-22T17:43:49.100Z,2.90
2022-08-22T17:46:57.124Z,3.33
2022-08-22T17:50:10.792Z,3.10
2022-08-22T17:53:34.653Z,2.67
2022-08-22T17:56:46.412Z,3.17
2022-08-22T18:00:15.867Z,3.30
2022-08-22T18:03:34.083Z,2.57
2022-08-22T18:06:40.102Z,3.47
2022-08-22T18:09:56.710Z,3.60
2022-08-22T18:13:12.666Z,3.13
2022-08-22T18:16:27.039Z,3.40
2022-08-22T18:20:02.231Z,3.30
2022-08-22T18:23:39.269Z,3.40
2022-08-22T18:27:30.032Z,3.23
2022-08-22T18:30:57.593Z,3.30
2022-08-22T18:34:19.474Z,3.27
2022-08-22T18:37:37.063Z,3.73
2022-08-22T18:40:50.383Z,3.83
2022-08-22T18:43:53.097Z,3.40
2022-08-22T18:47:01.127Z,3.50
2022-08-22T18:50:28.006Z,4.23
2022-08-22T18:53:52.828Z,4.53
2022-08-22T18:57:06.768Z,4.17
2022-08-22T19:00:16.899Z,4.23
2022-08-22T19:03:32.559Z,4.17
2022-08-22T19:07:04.625Z,4.20
2022-08-22T19:10:19.025Z,4.47
2022-08-22T19:13:30.120Z,4.17
2022-08-22T19:16:37.541Z,4.27
2022-08-22T19:20:06.947Z,4.10
2022-08-22T19:23:40.638Z,4.60
2022-08-22T19:26:44.895Z,4.47
2022-08-22T19:29:46.487Z,3.90
2022-08-22T19:32:49.427Z,4.80
2022-08-22T19:35:51.052Z,4.37
2022-08-22T19:39:10.357Z,4.30
2022-08-22T19:42:20.964Z,4.40
2022-08-22T19:45:29.272Z,4.80
2022-08-22T19:48:44.448Z,4.40
2022-08-22T19:52:07.426Z,4.43
2022-08-22T19:55:39.438Z,4.40
2022-08-22T19:58:56.120Z,4.73
2022-08-22T20:02:24.610Z,4.60
2022-08-22T20:05:56.945Z,4.50
2022-08-22T20:09:11.117Z,4.30
2022-08-22T20:12:28.447Z,4.23
2022-08-22T20:15:32.537Z,4.30
2022-08-22T20:19:06.390Z,4.10
2022-08-22T20:22:15.962Z,3.73
2022-08-22T20:25:42.099Z,4.20
2022-08-22T20:28:49.734Z,4.10
2022-08-22T20:31:58.660Z,4.13
2022-08-22T20:35:02.950Z,4.20
2022-08-22T20:38:08.638Z,3.87
2022-08-22T20:41:21.329Z,4.23
2022-08-22T20:44:30.033Z,3.83
2022-08-22T20:47:40.844Z,3.60
2022-08-22T20:50:44.107Z,3.50
2022-08-22T20:53:54.840Z,3.70
2022-08-22T20:56:58.503Z,3.60
2022-08-22T21:00:12.365Z,3.57
2022-08-22T21:03:38.664Z,3.40
2022-08-22T21:06:40.329Z,3.40
2022-08-22T21:10:00.456Z,3.50
2022-08-22T21:13:16.805Z,3.20
2022-08-22T21:16:20.541Z,3.60
2022-08-22T21:19:28.213Z,3.40
2022-08-22T21:22:32.667Z,3.37
2022-08-22T21:25:57.984Z,3.00
2022-08-22T21:29:10.556Z,3.13
2022-08-22T21:32:32.471Z,3.10
2022-08-22T21:35:34.321Z,3.60
2022-08-22T21:38:37.092Z,3.00
2022-08-22T21:41:42.444Z,2.70
2022-08-22T21:44:59.139Z,3.20
2022-08-22T21:48:01.633Z,3.30
2022-08-22T21:51:39.465Z,3.40
2022-08-22T21:54:46.404Z,3.53
2022-08-22T21:58:06.128Z,3.30
2022-08-22T22:01:31.307Z,3.67
2022-08-22T22:04:33.072Z,3.50
2022-08-22T22:07:42.424Z,3.27
2022-08-22T22:10:46.184Z,3.03
2022-08-22T22:13:47.910Z,3.50
2022-08-22T22:16:49.602Z,3.37
2022-08-22T22:19:51.273Z,3.97
2022-08-22T22:22:53.809Z,3.20
2022-08-22T22:26:01.657Z,2.97
2022-08-22T22:29:03.514Z,3.37
2022-08-22T22:32:05.380Z,3.60
2022-08-22T22:35:08.549Z,3.43
2022-08-22T22:38:10.483Z,3.50
2022-08-22T22:41:12.473Z,3.30
2022-08-22T22:44:14.145Z,3.40
2022-08-22T22:47:15.835Z,3.50
2022-08-22T22:50:17.564Z,3.67
2022-08-22T22:53:37.954Z,3.63
2022-08-22T22:56:40.428Z,3.40
2022-08-22T22:59:43.260Z,3.13
2022-08-22T23:02:46.489Z,3.40
2022-08-22T23:05:48.225Z,3.37
2022-08-22T23:08:50.487Z,3.47
2022-08-22T23:11:55.322Z,3.27
2022-08-22T23:14:57.064Z,3.40
2022-08-22T23:17:58.845Z,3.53
2022-08-22T23:21:22.189Z,3.40
2022-08-22T23:24:25.069Z,3.27
2022-08-22T23:27:26.761Z,3.33
2022-08-22T23:30:28.447Z,3.67
2022-08-22T23:33:30.186Z,3.30
2022-08-22T23:36:32.225Z,3.13
2022-08-22T23:39:35.245Z,3.30
2022-08-22T23:42:36.905Z,3.63
2022-08-22T23:45:39.855Z,3.37
2022-08-22T23:48:41.839Z,3.20
2022-08-22T23:51:44.444Z,3.70
2022-08-22T23:54:46.424Z,3.40
2022-08-22T23:57:48.688Z,3.33
